!!! Benutzen Sie für Ihre Flugvorbereitung die offiziellen Quellen !!!

Metar:

EDQM 161750Z 36003KT CAVOK 13/06 Q1020

QNH: 1020
Temperatur: 13
Dew Point : 6

 

METAR (decoded)